Time;durP1;ratioP1;P1;durP2;ratioP2;P2;SDS_P1;SDS_P2;PMS_P1;PMS_P2;Temp;Humidity;BMP_temperature;BMP_pressure;BME280_temperature;BME280_humidity;BME280_pressure;Samples;Min_cycle;Max_cycle;Signal;HPM_P1;HPM_P2
2021/05/07 00:01:40;;;;;;;7.83;4.47;;;5.90;99.90;;;;;;4995398;28;20225;-74
2021/05/07 00:04:06;;;;;;;7.53;4.67;;;5.80;99.90;;;;;;4995322;28;20234;-74
2021/05/07 00:06:33;;;;;;;8.67;4.97;;;5.80;99.90;;;;;;4995277;28;20214;-74
2021/05/07 00:09:04;;;;;;;9.23;5.17;;;5.70;99.90;;;;;;4994869;28;20593;-75
2021/05/07 00:11:32;;;;;;;6.97;4.63;;;5.70;99.90;;;;;;4994812;28;20218;-75
2021/05/07 00:13:58;;;;;;;8.00;4.53;;;5.70;99.90;;;;;;4995313;28;20293;-73
2021/05/07 00:16:27;;;;;;;8.40;4.40;;;5.70;99.90;;;;;;4995261;28;20242;-75
2021/05/07 00:18:54;;;;;;;7.77;5.00;;;5.70;99.90;;;;;;4994861;28;20226;-73
2021/05/07 00:21:20;;;;;;;7.93;4.50;;;5.70;99.90;;;;;;4994947;28;20207;-74
2021/05/07 00:23:46;;;;;;;8.50;5.30;;;5.70;99.90;;;;;;4994756;28;20234;-73
2021/05/07 00:26:12;;;;;;;11.03;5.87;;;5.60;99.90;;;;;;4995125;28;20210;-75
2021/05/07 00:28:39;;;;;;;9.90;5.03;;;5.60;99.90;;;;;;4994907;28;20230;-74
2021/05/07 00:31:05;;;;;;;8.53;5.17;;;5.60;99.90;;;;;;4995098;28;20715;-74
2021/05/07 00:33:32;;;;;;;8.50;5.20;;;5.50;99.90;;;;;;4994832;28;20669;-75
2021/05/07 00:35:59;;;;;;;8.03;5.27;;;5.50;99.90;;;;;;4994651;28;20233;-74
2021/05/07 00:38:25;;;;;;;7.40;4.43;;;5.50;99.90;;;;;;4994820;28;20223;-73
2021/05/07 00:40:51;;;;;;;7.43;4.90;;;5.50;99.90;;;;;;4994906;28;20218;-74
2021/05/07 00:43:17;;;;;;;7.10;4.90;;;5.50;99.90;;;;;;4994369;28;20253;-73
2021/05/07 00:45:44;;;;;;;7.40;4.60;;;5.50;99.90;;;;;;4994829;28;20214;-75
2021/05/07 00:48:11;;;;;;;9.83;5.60;;;5.60;99.90;;;;;;4994577;28;20230;-75
2021/05/07 00:50:40;;;;;;;8.07;5.03;;;5.60;99.90;;;;;;4994382;28;20233;-74
2021/05/07 00:53:07;;;;;;;8.37;5.57;;;5.60;99.90;;;;;;4994693;28;20211;-74
2021/05/07 00:55:36;;;;;;;8.83;5.63;;;5.60;99.90;;;;;;4994510;28;20210;-74
2021/05/07 00:58:03;;;;;;;7.77;5.23;;;5.50;99.90;;;;;;4994182;28;20230;-75
2021/05/07 01:00:31;;;;;;;9.20;5.47;;;5.40;99.90;;;;;;4994466;28;20206;-75
2021/05/07 01:02:58;;;;;;;7.60;4.93;;;5.30;99.90;;;;;;4994318;28;20206;-74
2021/05/07 01:05:25;;;;;;;8.63;5.03;;;5.30;99.90;;;;;;4994552;28;20275;-75
2021/05/07 01:07:52;;;;;;;9.43;5.30;;;5.30;99.90;;;;;;4993527;28;20281;-75
2021/05/07 01:10:19;;;;;;;9.43;5.30;;;5.30;99.90;;;;;;4994888;28;20210;-74
2021/05/07 01:12:46;;;;;;;10.03;5.23;;;5.30;99.90;;;;;;4993923;28;20522;-75
2021/05/07 01:15:16;;;;;;;10.93;6.13;;;5.30;99.90;;;;;;4994175;28;20619;-76
2021/05/07 01:17:43;;;;;;;14.93;5.70;;;5.30;99.90;;;;;;4993924;28;20232;-74
2021/05/07 01:20:13;;;;;;;13.10;6.03;;;5.40;99.90;;;;;;4994053;28;20210;-74
2021/05/07 01:22:40;;;;;;;10.60;6.17;;;5.40;99.90;;;;;;4994130;28;20218;-74
2021/05/07 01:25:08;;;;;;;9.73;6.03;;;5.40;99.90;;;;;;4994123;28;20234;-74
2021/05/07 01:27:38;;;;;;;12.40;6.10;;;5.40;99.90;;;;;;4993740;28;20592;-74
2021/05/07 01:30:12;;;;;;;10.63;6.73;;;5.40;99.90;;;;;;4993702;28;20207;-73
2021/05/07 01:32:40;;;;;;;10.27;5.60;;;5.40;99.90;;;;;;4993600;28;20294;-74
2021/05/07 01:35:09;;;;;;;12.43;6.40;;;5.40;99.90;;;;;;4993765;28;20732;-74
2021/05/07 01:37:37;;;;;;;17.57;6.43;;;5.50;99.90;;;;;;4994002;28;20226;-75
2021/05/07 01:40:11;;;;;;;10.63;5.87;;;5.50;99.90;;;;;;4993805;28;20206;-75
2021/05/07 01:42:37;;;;;;;12.40;6.00;;;5.60;99.90;;;;;;4993509;28;20205;-76
2021/05/07 01:45:05;;;;;;;9.40;6.27;;;5.50;99.90;;;;;;4993926;28;20241;-76
2021/05/07 01:47:31;;;;;;;13.20;5.97;;;5.40;99.90;;;;;;4993836;28;20222;-76
2021/05/07 01:49:57;;;;;;;13.53;6.10;;;5.40;99.90;;;;;;4993798;28;20217;-76
2021/05/07 01:52:24;;;;;;;11.03;6.10;;;5.50;99.90;;;;;;4993785;28;20281;-76
2021/05/07 01:54:51;;;;;;;11.80;6.83;;;5.50;99.90;;;;;;4993937;28;20609;-75
2021/05/07 01:57:17;;;;;;;13.10;6.63;;;5.50;99.90;;;;;;4993329;28;20249;-76
2021/05/07 01:59:43;;;;;;;14.00;6.40;;;5.40;99.90;;;;;;4993683;28;20561;-77
2021/05/07 02:02:10;;;;;;;9.73;6.13;;;5.40;99.90;;;;;;4993696;28;20585;-76
2021/05/07 02:04:36;;;;;;;11.90;6.67;;;5.40;99.90;;;;;;4993529;28;20632;-76
2021/05/07 02:07:02;;;;;;;11.00;6.37;;;5.40;99.90;;;;;;4993336;28;20225;-76
2021/05/07 02:09:28;;;;;;;11.97;6.67;;;5.50;99.90;;;;;;4993511;28;20213;-76
2021/05/07 02:11:56;;;;;;;11.63;6.80;;;5.50;99.90;;;;;;4993139;28;20555;-77
2021/05/07 02:14:22;;;;;;;16.13;6.37;;;5.50;99.90;;;;;;4993418;28;20581;-76
2021/05/07 02:16:48;;;;;;;12.47;6.90;;;5.50;99.90;;;;;;4993491;28;20215;-77
2021/05/07 02:19:14;;;;;;;12.80;6.40;;;5.40;99.90;;;;;;4994435;28;20206;-74
2021/05/07 02:21:40;;;;;;;12.33;6.50;;;5.50;99.90;;;;;;4997509;28;20207;-76
2021/05/07 02:24:09;;;;;;;11.07;6.87;;;5.40;99.90;;;;;;4997126;28;20234;-75
2021/05/07 02:26:35;;;;;;;9.63;5.60;;;5.40;99.90;;;;;;4997001;28;20213;-76
2021/05/07 02:29:03;;;;;;;9.73;5.90;;;5.30;99.90;;;;;;4997290;28;20241;-75
2021/05/07 02:31:29;;;;;;;10.90;6.00;;;5.30;99.90;;;;;;4997234;28;20209;-75
2021/05/07 02:33:56;;;;;;;11.77;6.97;;;5.30;99.90;;;;;;4997122;28;20577;-75
2021/05/07 02:36:22;;;;;;;11.03;5.97;;;5.40;99.90;;;;;;4997077;28;20206;-75
2021/05/07 02:38:48;;;;;;;13.43;6.30;;;5.50;99.90;;;;;;4996857;28;20237;-75
2021/05/07 02:41:14;;;;;;;15.80;7.47;;;5.40;99.90;;;;;;4997275;28;20206;-74
2021/05/07 02:43:40;;;;;;;12.43;6.60;;;5.50;99.90;;;;;;4996600;28;20234;-75
2021/05/07 02:46:08;;;;;;;12.27;6.30;;;5.50;99.90;;;;;;4996943;28;20269;-74
2021/05/07 02:48:34;;;;;;;11.87;5.93;;;5.50;99.90;;;;;;4996807;28;20280;-75
2021/05/07 02:51:00;;;;;;;12.07;6.57;;;5.40;99.90;;;;;;4996595;28;20210;-76
2021/05/07 02:53:27;;;;;;;10.20;6.17;;;5.40;99.90;;;;;;4996651;28;20221;-75
2021/05/07 02:55:53;;;;;;;14.60;6.27;;;5.30;99.90;;;;;;4996669;28;20207;-75
2021/05/07 02:58:19;;;;;;;12.30;6.37;;;5.20;99.90;;;;;;4996713;28;20238;-76
2021/05/07 03:00:46;;;;;;;12.10;6.27;;;5.20;99.90;;;;;;4996607;28;20206;-75
2021/05/07 03:03:13;;;;;;;12.30;6.30;;;5.20;99.90;;;;;;4996445;28;20202;-74
2021/05/07 03:05:39;;;;;;;10.53;5.80;;;5.30;99.90;;;;;;4996583;28;20217;-75
2021/05/07 03:08:06;;;;;;;10.47;6.10;;;5.40;99.90;;;;;;4996425;28;20230;-75
2021/05/07 03:10:32;;;;;;;10.00;5.87;;;5.50;99.90;;;;;;4996711;28;20210;-75
2021/05/07 03:12:58;;;;;;;10.93;6.40;;;5.50;99.90;;;;;;4996181;28;20214;-76
2021/05/07 03:15:24;;;;;;;9.20;5.40;;;5.50;99.90;;;;;;4996570;28;20264;-75
2021/05/07 03:17:53;;;;;;;10.53;6.00;;;5.60;99.90;;;;;;4996259;28;20241;-75
2021/05/07 03:20:20;;;;;;;10.60;5.67;;;5.70;99.90;;;;;;4996187;28;20210;-75
2021/05/07 03:22:47;;;;;;;12.17;6.23;;;5.80;99.90;;;;;;4996100;28;20210;-75
2021/05/07 03:25:14;;;;;;;10.97;6.37;;;5.90;99.90;;;;;;4996326;28;20230;-75
2021/05/07 03:27:41;;;;;;;11.60;5.90;;;6.00;99.90;;;;;;4995827;28;20724;-75
2021/05/07 03:30:08;;;;;;;9.97;5.53;;;6.00;99.90;;;;;;4996061;28;20206;-76
2021/05/07 03:32:35;;;;;;;10.60;5.50;;;6.10;99.90;;;;;;4995565;28;20213;-75
2021/05/07 03:35:01;;;;;;;11.57;5.30;;;6.10;99.90;;;;;;4996063;28;20253;-75
2021/05/07 03:37:28;;;;;;;12.47;5.73;;;5.90;99.90;;;;;;4995928;28;20237;-74
2021/05/07 03:39:54;;;;;;;9.83;5.23;;;5.90;99.90;;;;;;4995548;28;20213;-76
2021/05/07 03:42:20;;;;;;;11.87;5.57;;;5.90;99.90;;;;;;4995727;28;20214;-77
2021/05/07 03:44:46;;;;;;;12.47;5.80;;;6.00;99.90;;;;;;4995748;28;20238;-77
2021/05/07 03:47:13;;;;;;;11.43;5.57;;;6.10;99.90;;;;;;4995640;28;20269;-77
2021/05/07 03:49:39;;;;;;;11.10;5.23;;;6.10;99.90;;;;;;4995497;28;20288;-76
2021/05/07 03:52:05;;;;;;;11.10;5.23;;;6.20;99.90;;;;;;4995624;28;20214;-76
2021/05/07 03:54:33;;;;;;;10.67;5.73;;;6.20;99.90;;;;;;4995449;28;20210;-76
2021/05/07 03:56:59;;;;;;;11.10;5.70;;;6.20;99.90;;;;;;4995415;28;20279;-75
2021/05/07 03:59:25;;;;;;;9.80;5.13;;;6.30;99.90;;;;;;4995653;28;20264;-77
2021/05/07 04:01:51;;;;;;;9.93;5.27;;;6.40;99.90;;;;;;4995690;28;20202;-77
2021/05/07 04:04:18;;;;;;;9.10;4.70;;;6.50;99.90;;;;;;4995238;28;20238;-76
2021/05/07 04:06:44;;;;;;;10.03;5.43;;;6.50;99.90;;;;;;4995572;28;20211;-76
2021/05/07 04:09:13;;;;;;;11.80;5.70;;;6.50;99.90;;;;;;4995157;28;20701;-77
2021/05/07 04:11:51;;;;;;;12.77;5.87;;;6.50;99.90;;;;;;4994995;28;20669;-77
2021/05/07 04:14:17;;;;;;;10.10;5.10;;;6.40;99.90;;;;;;4995314;28;20265;-76
2021/05/07 04:16:44;;;;;;;11.60;4.73;;;6.30;99.90;;;;;;4995153;28;20261;-76
2021/05/07 04:19:11;;;;;;;10.37;4.53;;;6.30;99.90;;;;;;4994909;28;20231;-75
2021/05/07 04:21:37;;;;;;;7.77;4.77;;;6.30;99.90;;;;;;4995284;28;20202;-76
2021/05/07 04:24:04;;;;;;;9.50;4.53;;;6.40;99.90;;;;;;4995027;28;20238;-76
2021/05/07 04:26:30;;;;;;;10.87;4.70;;;6.40;99.90;;;;;;4994851;28;20546;-75
2021/05/07 04:28:57;;;;;;;7.17;4.17;;;6.40;99.90;;;;;;4994687;28;20233;-76
2021/05/07 04:31:23;;;;;;;8.63;4.80;;;6.40;99.90;;;;;;4994593;28;20210;-76
2021/05/07 04:33:51;;;;;;;7.17;4.07;;;6.40;99.90;;;;;;4995036;28;20276;-76
2021/05/07 04:36:17;;;;;;;12.70;5.07;;;6.50;99.90;;;;;;4994986;28;20301;-76
2021/05/07 04:38:43;;;;;;;8.80;4.43;;;6.50;99.90;;;;;;4994856;28;20230;-76
2021/05/07 04:41:09;;;;;;;6.40;4.20;;;6.60;99.90;;;;;;4994680;28;20299;-76
2021/05/07 04:43:36;;;;;;;9.57;4.30;;;6.40;99.90;;;;;;4993790;28;20318;-76
2021/05/07 04:46:03;;;;;;;8.07;3.97;;;6.40;99.90;;;;;;4994622;28;20206;-76
2021/05/07 04:48:29;;;;;;;7.90;4.40;;;6.50;99.90;;;;;;4994777;28;20234;-76
2021/05/07 04:50:55;;;;;;;11.13;3.90;;;6.50;99.90;;;;;;4994649;28;20562;-76
2021/05/07 04:53:21;;;;;;;7.00;3.80;;;6.40;99.90;;;;;;4994626;28;20269;-76
2021/05/07 04:55:48;;;;;;;6.50;3.83;;;6.40;99.90;;;;;;4994583;28;20216;-76
2021/05/07 04:58:14;;;;;;;9.97;4.03;;;6.50;99.90;;;;;;4994023;28;20571;-77
2021/05/07 05:00:40;;;;;;;8.23;4.30;;;6.50;99.90;;;;;;4994088;28;20210;-76
2021/05/07 05:03:07;;;;;;;7.00;3.50;;;6.50;99.90;;;;;;4994569;28;20207;-76
2021/05/07 05:05:34;;;;;;;7.27;3.53;;;6.60;99.90;;;;;;4995031;28;20241;-76
2021/05/07 05:08:00;;;;;;;8.43;3.87;;;6.60;99.90;;;;;;4994390;28;20226;-76
2021/05/07 05:10:26;;;;;;;8.00;3.53;;;6.70;99.90;;;;;;4994180;28;20257;-74
2021/05/07 05:12:52;;;;;;;9.83;4.00;;;6.90;99.90;;;;;;4994030;28;20218;-76
2021/05/07 05:15:20;;;;;;;8.47;4.30;;;6.90;99.90;;;;;;4994110;28;20206;-76
2021/05/07 05:17:46;;;;;;;8.13;4.10;;;7.30;99.90;;;;;;4994175;28;20237;-76
2021/05/07 05:20:14;;;;;;;5.97;3.57;;;7.80;99.90;;;;;;4994091;28;20218;-76
2021/05/07 05:22:40;;;;;;;6.47;3.20;;;8.00;99.90;;;;;;4994087;28;20203;-74
2021/05/07 05:25:07;;;;;;;4.90;2.83;;;8.10;99.90;;;;;;4993727;28;20337;-76
2021/05/07 05:27:34;;;;;;;5.80;3.37;;;8.00;99.90;;;;;;4993587;28;20771;-76
2021/05/07 05:30:00;;;;;;;5.13;3.23;;;8.10;99.90;;;;;;4993952;28;20206;-75
2021/05/07 05:32:27;;;;;;;4.60;3.07;;;8.00;99.90;;;;;;4993890;28;20210;-76
2021/05/07 05:34:53;;;;;;;4.97;2.60;;;8.00;99.90;;;;;;4993886;28;20676;-76
2021/05/07 05:37:20;;;;;;;5.23;2.73;;;8.00;99.90;;;;;;4993678;28;20226;-77
2021/05/07 05:39:47;;;;;;;5.07;3.20;;;7.80;99.90;;;;;;4993552;28;20203;-76
2021/05/07 05:42:13;;;;;;;3.93;2.50;;;7.80;99.90;;;;;;4993605;28;20229;-76
2021/05/07 05:44:39;;;;;;;8.43;2.80;;;7.80;99.90;;;;;;4993714;28;20597;-77
2021/05/07 05:47:06;;;;;;;5.53;2.57;;;7.90;99.90;;;;;;4993745;28;20206;-77
2021/05/07 05:49:32;;;;;;;6.37;3.23;;;8.00;99.90;;;;;;4993569;28;20209;-76
2021/05/07 05:51:58;;;;;;;4.63;2.90;;;8.10;99.90;;;;;;4993661;28;20206;-77
2021/05/07 05:54:25;;;;;;;4.53;2.70;;;8.30;99.90;;;;;;4993307;28;20206;-77
2021/05/07 05:56:51;;;;;;;3.87;2.40;;;8.90;99.90;;;;;;4993407;28;20218;-76
2021/05/07 05:59:18;;;;;;;5.60;2.33;;;8.90;99.90;;;;;;4993822;28;20333;-76
2021/05/07 06:01:44;;;;;;;3.90;2.50;;;9.00;99.90;;;;;;4993768;28;20210;-78
2021/05/07 06:04:12;;;;;;;4.17;2.27;;;8.90;99.90;;;;;;4993625;28;20238;-77
2021/05/07 06:06:38;;;;;;;3.50;2.10;;;8.60;99.90;;;;;;4993637;28;20581;-77
2021/05/07 06:09:05;;;;;;;4.63;2.40;;;8.60;99.90;;;;;;4993617;28;20286;-76
2021/05/07 06:11:33;;;;;;;4.83;2.00;;;8.60;99.90;;;;;;4993537;28;20218;-77
2021/05/07 06:13:59;;;;;;;3.87;2.20;;;8.50;99.90;;;;;;4993391;28;20210;-76
2021/05/07 06:16:25;;;;;;;5.53;2.10;;;8.40;99.90;;;;;;4993424;28;20673;-76
2021/05/07 06:18:51;;;;;;;5.73;2.10;;;8.40;99.90;;;;;;4993359;28;20238;-76
2021/05/07 06:21:17;;;;;;;3.00;2.20;;;8.60;99.90;;;;;;4993464;28;20218;-76
2021/05/07 06:23:44;;;;;;;2.40;1.80;;;8.80;99.90;;;;;;4993382;28;20230;-77
2021/05/07 06:26:10;;;;;;;2.63;1.43;;;9.20;99.90;;;;;;4993309;28;20210;-77
2021/05/07 06:28:37;;;;;;;3.07;1.57;;;9.90;99.90;;;;;;4993468;28;20230;-77
2021/05/07 06:31:03;;;;;;;1.90;1.40;;;11.10;99.90;;;;;;4993388;28;20217;-76
2021/05/07 06:33:29;;;;;;;2.13;1.20;;;12.20;99.90;;;;;;4994592;28;20207;-77
2021/05/07 06:35:55;;;;;;;3.07;1.37;;;12.50;99.90;;;;;;4994722;28;20213;-77
2021/05/07 06:38:22;;;;;;;1.10;1.00;;;12.40;99.90;;;;;;4993083;28;20235;-76
2021/05/07 06:40:49;;;;;;;1.83;1.40;;;12.70;99.90;;;;;;4993622;28;20222;-76
2021/05/07 06:43:15;;;;;;;1.40;1.20;;;13.20;99.90;;;;;;4993087;28;20203;-77
2021/05/07 06:45:42;;;;;;;1.70;1.20;;;13.50;99.90;;;;;;4993095;28;20322;-75
2021/05/07 06:48:09;;;;;;;1.70;1.43;;;13.50;99.90;;;;;;4993199;28;20227;-77
2021/05/07 06:50:35;;;;;;;3.27;1.33;;;13.30;99.90;;;;;;4993137;28;20207;-77
2021/05/07 06:53:01;;;;;;;1.40;1.13;;;13.10;99.90;;;;;;4992909;28;20218;-76
2021/05/07 06:55:28;;;;;;;1.30;1.10;;;12.70;99.90;;;;;;4993509;28;20562;-77
2021/05/07 06:57:54;;;;;;;1.60;1.20;;;12.10;99.90;;;;;;4992986;28;20227;-76
2021/05/07 07:00:20;;;;;;;1.63;1.20;;;11.50;99.90;;;;;;4993159;28;20206;-75
2021/05/07 07:02:47;;;;;;;1.90;1.43;;;10.90;99.90;;;;;;4993217;28;20211;-77
2021/05/07 07:05:14;;;;;;;2.23;1.23;;;10.50;99.90;;;;;;4993478;28;20345;-76
2021/05/07 07:07:40;;;;;;;2.30;1.43;;;10.10;99.90;;;;;;4995985;28;20230;-75
2021/05/07 07:10:07;;;;;;;3.03;1.60;;;9.90;99.90;;;;;;4997527;28;20236;-77
2021/05/07 07:12:34;;;;;;;2.70;1.53;;;9.60;99.90;;;;;;4996586;28;20219;-75
2021/05/07 07:15:01;;;;;;;2.03;1.60;;;9.40;99.90;;;;;;4996477;28;20202;-76
2021/05/07 07:17:27;;;;;;;2.17;1.43;;;9.80;99.90;;;;;;4996519;28;20230;-76
2021/05/07 07:19:54;;;;;;;2.57;1.33;;;10.20;99.90;;;;;;4996221;28;20206;-76
2021/05/07 07:22:21;;;;;;;3.20;1.60;;;10.60;99.90;;;;;;4996321;28;20694;-77
2021/05/07 07:24:49;;;;;;;1.30;1.10;;;11.00;99.90;;;;;;4996417;28;20233;-75
2021/05/07 07:27:15;;;;;;;2.40;1.37;;;11.40;99.90;;;;;;4996185;28;20253;-77
2021/05/07 07:29:41;;;;;;;1.43;1.33;;;12.20;99.90;;;;;;4998379;28;20268;-82
2021/05/07 07:32:08;;;;;;;1.00;0.90;;;12.80;99.90;;;;;;5010090;28;20225;-76
2021/05/07 07:34:34;;;;;;;1.63;1.30;;;13.20;99.90;;;;;;5015167;28;20684;-77
2021/05/07 07:37:01;;;;;;;1.47;1.30;;;13.30;99.90;;;;;;5015351;28;20206;-77
2021/05/07 07:39:27;;;;;;;2.30;1.57;;;13.50;99.90;;;;;;5013422;28;20217;-76
2021/05/07 07:41:54;;;;;;;1.17;1.00;;;14.00;99.30;;;;;;5012569;28;20690;-77
2021/05/07 07:44:20;;;;;;;1.50;1.10;;;14.20;98.10;;;;;;5014993;28;20242;-73
2021/05/07 07:46:46;;;;;;;1.90;1.00;;;13.80;99.10;;;;;;5014305;28;20205;-77
2021/05/07 07:49:13;;;;;;;1.97;1.07;;;14.20;98.60;;;;;;5015159;28;20233;-74
2021/05/07 07:51:39;;;;;;;1.97;1.20;;;14.50;99.20;;;;;;5015013;28;20206;-73
2021/05/07 07:54:08;;;;;;;1.80;1.20;;;14.60;97.80;;;;;;5015286;28;20220;-76
2021/05/07 07:56:35;;;;;;;2.73;1.00;;;14.50;95.80;;;;;;5014915;28;20726;-76
2021/05/07 07:59:01;;;;;;;1.60;1.00;;;14.40;95.60;;;;;;5015127;28;20229;-73
2021/05/07 08:01:28;;;;;;;3.10;1.13;;;15.10;95.50;;;;;;5015205;28;20584;-76
2021/05/07 08:03:55;;;;;;;4.27;1.10;;;15.90;94.10;;;;;;5014936;28;20299;-74
2021/05/07 08:06:22;;;;;;;2.63;1.07;;;16.70;91.20;;;;;;5014967;28;20248;-73
2021/05/07 08:08:48;;;;;;;1.00;0.90;;;17.50;89.70;;;;;;5014969;28;20234;-73
2021/05/07 08:11:15;;;;;;;1.50;0.80;;;17.70;89.40;;;;;;5014980;28;20217;-73
2021/05/07 08:13:42;;;;;;;2.37;1.03;;;18.10;90.20;;;;;;5014769;28;20206;-73
2021/05/07 08:16:08;;;;;;;1.67;1.03;;;18.70;85.60;;;;;;5014920;28;20210;-74
2021/05/07 08:18:34;;;;;;;2.17;1.00;;;18.50;84.20;;;;;;5014671;28;20577;-74
2021/05/07 08:21:01;;;;;;;2.13;1.10;;;18.80;82.40;;;;;;5014965;28;20212;-73
2021/05/07 08:23:27;;;;;;;1.48;0.88;;;19.00;84.10;;;;;;5014617;28;20632;-76
2021/05/07 08:25:53;;;;;;;1.50;0.90;;;18.60;89.50;;;;;;5014775;28;20256;-76
2021/05/07 08:28:20;;;;;;;1.33;0.90;;;18.00;85.70;;;;;;5014169;28;20696;-75
2021/05/07 08:30:47;;;;;;;3.73;0.80;;;17.20;85.10;;;;;;5014418;28;20683;-75
2021/05/07 08:33:14;;;;;;;1.17;1.00;;;17.50;86.50;;;;;;5014319;28;20208;-74
2021/05/07 08:35:40;;;;;;;1.10;0.83;;;18.20;82.70;;;;;;5014363;28;20217;-75
2021/05/07 08:38:08;;;;;;;1.20;1.07;;;18.90;83.70;;;;;;5014317;28;20229;-75
2021/05/07 08:40:35;;;;;;;1.00;0.80;;;19.40;77.90;;;;;;5014563;28;20256;-75
2021/05/07 08:43:01;;;;;;;1.53;1.10;;;19.50;77.90;;;;;;5014003;28;20289;-75
2021/05/07 08:45:28;;;;;;;1.83;1.30;;;19.70;78.50;;;;;;5014616;28;20233;-74
2021/05/07 08:47:54;;;;;;;1.40;1.07;;;19.70;76.60;;;;;;5014117;28;20229;-75
2021/05/07 08:50:21;;;;;;;1.10;0.90;;;20.00;77.70;;;;;;5014293;28;20205;-75
2021/05/07 08:52:47;;;;;;;1.97;1.10;;;19.60;76.90;;;;;;5014179;28;20205;-75
2021/05/07 08:55:14;;;;;;;2.93;1.40;;;18.70;82.30;;;;;;5013881;28;20209;-75
2021/05/07 08:57:41;;;;;;;3.83;1.00;;;18.00;84.40;;;;;;5013881;28;20225;-75
2021/05/07 09:00:09;;;;;;;1.60;1.20;;;18.20;84.10;;;;;;5014118;28;20214;-75
2021/05/07 09:02:37;;;;;;;1.93;1.10;;;18.60;79.40;;;;;;5013788;28;20660;-72
2021/05/07 09:05:04;;;;;;;1.40;1.20;;;18.90;79.50;;;;;;5014013;28;20245;-75
2021/05/07 09:07:30;;;;;;;2.00;0.80;;;19.00;79.30;;;;;;5013743;28;20229;-75
2021/05/07 09:09:59;;;;;;;1.90;1.20;;;18.60;79.10;;;;;;5013806;28;20546;-72
2021/05/07 09:12:27;;;;;;;3.07;1.30;;;18.70;74.40;;;;;;5013530;28;20588;-75
2021/05/07 09:14:55;;;;;;;1.70;1.40;;;18.80;74.90;;;;;;5013517;28;20216;-75
2021/05/07 09:17:22;;;;;;;1.53;1.23;;;18.50;76.60;;;;;;5013974;28;20230;-74
2021/05/07 09:19:50;;;;;;;2.03;1.37;;;18.70;75.20;;;;;;5013644;28;20216;-74
2021/05/07 09:22:23;;;;;;;2.00;1.57;;;18.70;75.50;;;;;;5013617;28;20209;-74
2021/05/07 09:24:49;;;;;;;1.63;1.37;;;18.10;79.50;;;;;;5013299;28;20238;-74
2021/05/07 09:27:23;;;;;;;1.70;1.00;;;17.80;77.20;;;;;;5013187;28;20553;-74
2021/05/07 09:29:49;;;;;;;2.00;1.50;;;17.70;76.80;;;;;;5013127;28;20217;-74
2021/05/07 09:32:15;;;;;;;2.10;1.47;;;17.30;78.30;;;;;;5013681;28;20260;-74
2021/05/07 09:34:44;;;;;;;3.87;1.83;;;16.90;81.60;;;;;;5013486;28;20664;-74
2021/05/07 09:37:17;;;;;;;1.73;1.37;;;16.60;81.40;;;;;;5013717;28;20231;-74
2021/05/07 09:39:43;;;;;;;3.20;1.80;;;16.10;82.40;;;;;;5013114;28;20212;-74
2021/05/07 09:42:09;;;;;;;3.40;1.77;;;15.60;82.60;;;;;;5013128;28;20205;-74
2021/05/07 09:44:36;;;;;;;2.20;1.40;;;14.90;86.00;;;;;;5013159;28;20237;-75
2021/05/07 09:47:13;;;;;;;2.17;1.40;;;14.70;90.10;;;;;;5013091;28;20201;-74
2021/05/07 09:49:40;;;;;;;3.23;1.50;;;15.30;89.40;;;;;;5013301;28;20232;-74
2021/05/07 09:52:07;;;;;;;3.30;1.80;;;15.40;88.70;;;;;;5013162;28;20213;-74
2021/05/07 09:54:35;;;;;;;1.90;1.20;;;15.40;88.60;;;;;;5013352;28;20205;-74
2021/05/07 09:57:01;;;;;;;1.87;1.43;;;15.20;85.20;;;;;;5013152;28;20580;-73
2021/05/07 09:59:29;;;;;;;2.67;1.60;;;15.20;84.20;;;;;;5013105;28;20210;-74
2021/05/07 10:01:56;;;;;;;2.30;1.80;;;15.30;89.70;;;;;;5013200;28;20212;-74
2021/05/07 10:04:22;;;;;;;2.90;1.73;;;15.30;88.10;;;;;;5013023;28;20645;-74
2021/05/07 10:06:48;;;;;;;3.67;2.00;;;15.30;88.90;;;;;;5012516;28;20220;-74
2021/05/07 10:09:23;;;;;;;2.13;1.40;;;15.30;87.60;;;;;;5013087;28;20221;-74
2021/05/07 10:11:51;;;;;;;2.20;1.57;;;15.40;87.10;;;;;;5012919;28;20557;-74
2021/05/07 10:14:19;;;;;;;1.93;1.60;;;15.40;89.50;;;;;;5013132;28;20210;-74
2021/05/07 10:16:45;;;;;;;2.43;1.63;;;15.50;86.80;;;;;;5007271;28;20198;-74
2021/05/07 10:19:13;;;;;;;2.07;1.70;;;15.80;85.60;;;;;;5012620;28;20230;-74
2021/05/07 10:21:40;;;;;;;3.03;1.70;;;15.90;84.50;;;;;;5012869;28;20312;-75
2021/05/07 10:24:09;;;;;;;3.33;1.80;;;16.30;83.40;;;;;;5012740;28;20221;-74
2021/05/07 10:26:39;;;;;;;3.37;1.87;;;16.40;85.70;;;;;;5012568;28;20210;-75
2021/05/07 10:29:17;;;;;;;2.90;1.73;;;16.30;86.80;;;;;;5012572;28;20291;-75
2021/05/07 10:31:45;;;;;;;2.83;1.57;;;15.80;86.80;;;;;;5012433;28;20202;-76
2021/05/07 10:34:12;;;;;;;2.97;2.07;;;15.40;87.00;;;;;;5012592;28;20205;-76
2021/05/07 10:36:39;;;;;;;1.83;1.70;;;15.30;85.20;;;;;;5012775;28;20292;-75
2021/05/07 10:39:16;;;;;;;1.90;1.70;;;15.20;82.80;;;;;;5012616;28;20229;-73
2021/05/07 10:41:42;;;;;;;4.03;1.70;;;15.30;81.10;;;;;;5013978;28;20209;-74
2021/05/07 10:44:09;;;;;;;2.90;1.60;;;15.10;82.80;;;;;;5017190;28;20231;-74
2021/05/07 10:46:37;;;;;;;3.83;1.90;;;15.00;85.10;;;;;;5015798;28;20206;-74
2021/05/07 10:49:03;;;;;;;3.27;1.70;;;15.10;82.40;;;;;;5016016;28;20244;-74
2021/05/07 10:51:29;;;;;;;3.93;1.83;;;14.90;80.90;;;;;;5016501;28;20699;-74
2021/05/07 10:54:05;;;;;;;11.03;4.90;;;14.90;81.40;;;;;;5016321;28;20565;-74
2021/05/07 10:56:36;;;;;;;2.00;1.40;;;14.70;83.70;;;;;;5015543;28;20212;-74
2021/05/07 10:59:12;;;;;;;1.60;1.10;;;14.50;86.80;;;;;;5016058;28;20229;-74
2021/05/07 11:01:40;;;;;;;2.13;1.30;;;14.20;87.30;;;;;;5016030;28;20283;-73
2021/05/07 11:04:09;;;;;;;2.07;1.37;;;14.00;89.00;;;;;;5016179;28;20210;-74
2021/05/07 11:06:37;;;;;;;1.43;1.30;;;13.90;88.70;;;;;;5016152;28;20252;-74
2021/05/07 11:09:14;;;;;;;2.50;1.53;;;13.70;89.40;;;;;;5015930;28;20232;-74
2021/05/07 11:11:40;;;;;;;1.73;1.20;;;13.70;90.00;;;;;;5015568;28;20213;-74
2021/05/07 11:14:09;;;;;;;2.43;1.57;;;13.90;88.30;;;;;;5015518;28;20209;-73
2021/05/07 11:16:37;;;;;;;1.60;1.30;;;14.20;87.00;;;;;;5015875;28;20224;-74
2021/05/07 11:19:04;;;;;;;2.27;1.40;;;14.40;87.10;;;;;;5015606;28;20773;-73
2021/05/07 11:21:31;;;;;;;3.37;1.60;;;14.60;84.40;;;;;;5015823;28;20213;-73
2021/05/07 11:23:57;;;;;;;2.07;1.47;;;14.70;85.20;;;;;;5015690;28;20928;-74
2021/05/07 11:26:35;;;;;;;2.40;1.53;;;14.60;85.90;;;;;;5015428;28;20209;-74
2021/05/07 11:29:02;;;;;;;2.30;1.40;;;14.60;86.10;;;;;;5015333;28;20722;-74
2021/05/07 11:31:28;;;;;;;3.27;1.57;;;14.60;84.90;;;;;;5015784;28;20217;-74
2021/05/07 11:33:54;;;;;;;2.33;1.60;;;14.80;86.80;;;;;;5015438;28;20208;-74
2021/05/07 11:36:22;;;;;;;2.43;1.47;;;14.80;86.50;;;;;;5014772;28;20691;-74
2021/05/07 11:38:48;;;;;;;2.77;1.80;;;14.70;87.80;;;;;;5015713;28;20229;-74
2021/05/07 11:41:21;;;;;;;3.33;1.80;;;14.60;86.50;;;;;;5015280;28;20675;-73
2021/05/07 11:43:49;;;;;;;3.03;1.80;;;14.80;83.30;;;;;;5014956;28;20676;-73
2021/05/07 11:46:15;;;;;;;1.80;1.30;;;14.90;82.70;;;;;;5015238;28;20240;-73
2021/05/07 11:48:45;;;;;;;2.33;1.70;;;14.90;82.30;;;;;;5014998;28;20253;-73
2021/05/07 11:51:11;;;;;;;1.80;1.40;;;15.10;83.70;;;;;;5015021;28;20724;-73
2021/05/07 11:53:39;;;;;;;1.90;1.40;;;15.20;85.10;;;;;;5014822;28;20260;-73
2021/05/07 11:56:06;;;;;;;4.73;2.40;;;15.40;84.90;;;;;;5014983;28;20236;-74
2021/05/07 11:58:34;;;;;;;2.17;1.70;;;15.60;83.80;;;;;;5014956;28;20320;-74
2021/05/07 12:01:01;;;;;;;1.90;1.53;;;15.60;82.90;;;;;;5014765;28;20205;-74
2021/05/07 12:03:37;;;;;;;3.23;1.50;;;15.80;81.00;;;;;;5014683;28;20252;-74
2021/05/07 12:06:18;;;;;;;2.73;1.70;;;15.90;81.80;;;;;;5014579;28;20275;-73
2021/05/07 12:08:46;;;;;;;2.60;1.50;;;15.80;79.70;;;;;;5014809;28;20280;-74
2021/05/07 12:11:13;;;;;;;2.30;1.50;;;15.80;81.60;;;;;;5014727;28;20229;-73
2021/05/07 12:13:39;;;;;;;2.70;1.70;;;15.80;83.80;;;;;;5014675;28;20676;-73
2021/05/07 12:16:06;;;;;;;2.47;1.70;;;15.50;82.60;;;;;;5014290;28;20652;-73
2021/05/07 12:18:35;;;;;;;2.43;1.67;;;15.60;80.30;;;;;;5014506;28;20225;-73
2021/05/07 12:21:05;;;;;;;2.63;1.80;;;15.70;81.00;;;;;;5014138;28;20904;-74
2021/05/07 12:23:43;;;;;;;3.17;1.60;;;15.80;78.10;;;;;;5014414;28;20206;-73
2021/05/07 12:26:11;;;;;;;2.37;1.67;;;15.80;77.60;;;;;;5014196;28;20233;-73
2021/05/07 12:28:38;;;;;;;2.37;1.40;;;15.80;75.90;;;;;;5013691;28;20708;-74
2021/05/07 12:31:06;;;;;;;1.90;1.40;;;16.00;80.60;;;;;;5008404;28;20288;-72
2021/05/07 12:33:35;;;;;;;3.63;2.00;;;16.10;79.50;;;;;;5014201;28;20206;-72
2021/05/07 12:36:01;;;;;;;2.67;1.60;;;16.00;78.20;;;;;;5014020;28;20686;-72
2021/05/07 12:38:30;;;;;;;3.33;2.00;;;16.00;77.20;;;;;;5014239;28;20225;-73
2021/05/07 12:41:01;;;;;;;3.43;1.73;;;16.20;78.40;;;;;;5007498;28;20593;-73
2021/05/07 12:43:31;;;;;;;4.43;1.60;;;16.50;79.60;;;;;;5013772;28;20617;-73
2021/05/07 12:45:57;;;;;;;3.17;1.70;;;16.40;77.20;;;;;;5013799;28;20241;-73
2021/05/07 12:48:23;;;;;;;3.23;1.77;;;16.20;76.70;;;;;;5013904;28;20221;-74
2021/05/07 12:50:50;;;;;;;2.60;1.83;;;16.20;77.50;;;;;;5013905;28;20213;-74